sensor_id;sensor_type;location;lat;lon;timestamp;temperature;humidity
7502;DHT22;3792;47.740;7.606;2022-11-20T00:01:55;7.30;99.90
7502;DHT22;3792;47.740;7.606;2022-11-20T00:04:22;7.30;99.90
7502;DHT22;3792;47.740;7.606;2022-11-20T00:06:49;7.30;99.90
7502;DHT22;3792;47.740;7.606;2022-11-20T00:09:16;7.30;99.90
7502;DHT22;3792;47.740;7.606;2022-11-20T00:11:43;7.30;99.90
7502;DHT22;3792;47.740;7.606;2022-11-20T00:14:11;7.30;99.90
7502;DHT22;3792;47.740;7.606;2022-11-20T00:16:38;7.40;99.90
7502;DHT22;3792;47.740;7.606;2022-11-20T00:19:06;7.40;99.90
7502;DHT22;3792;47.740;7.606;2022-11-20T00:21:33;7.40;99.90
7502;DHT22;3792;47.740;7.606;2022-11-20T00:24:00;7.40;99.90
7502;DHT22;3792;47.740;7.606;2022-11-20T00:26:28;7.50;99.90
7502;DHT22;3792;47.740;7.606;2022-11-20T00:28:57;7.50;99.90
7502;DHT22;3792;47.740;7.606;2022-11-20T00:31:25;7.50;99.90
7502;DHT22;3792;47.740;7.606;2022-11-20T00:33:52;7.50;99.90
7502;DHT22;3792;47.740;7.606;2022-11-20T00:36:22;7.50;99.90
7502;DHT22;3792;47.740;7.606;2022-11-20T00:38:51;7.50;99.90
7502;DHT22;3792;47.740;7.606;2022-11-20T00:41:19;7.50;99.90
7502;DHT22;3792;47.740;7.606;2022-11-20T00:43:46;7.50;99.90
7502;DHT22;3792;47.740;7.606;2022-11-20T00:46:14;7.50;99.90
7502;DHT22;3792;47.740;7.606;2022-11-20T00:48:42;7.50;99.90
7502;DHT22;3792;47.740;7.606;2022-11-20T00:51:09;7.50;99.90
7502;DHT22;3792;47.740;7.606;2022-11-20T00:53:39;7.50;99.90
7502;DHT22;3792;47.740;7.606;2022-11-20T00:56:09;7.50;99.90
7502;DHT22;3792;47.740;7.606;2022-11-20T00:58:38;7.50;99.90
7502;DHT22;3792;47.740;7.606;2022-11-20T01:01:07;7.50;99.90
7502;DHT22;3792;47.740;7.606;2022-11-20T01:03:35;7.40;99.90
7502;DHT22;3792;47.740;7.606;2022-11-20T01:06:05;7.40;99.90
7502;DHT22;3792;47.740;7.606;2022-11-20T01:08:33;7.40;99.90
7502;DHT22;3792;47.740;7.606;2022-11-20T01:11:03;7.40;99.90
7502;DHT22;3792;47.740;7.606;2022-11-20T01:13:31;7.30;99.90
7502;DHT22;3792;47.740;7.606;2022-11-20T01:16:05;7.40;99.90
7502;DHT22;3792;47.740;7.606;2022-11-20T01:18:33;7.40;99.90
7502;DHT22;3792;47.740;7.606;2022-11-20T01:21:02;7.40;99.90
7502;DHT22;3792;47.740;7.606;2022-11-20T01:23:33;7.40;99.90
7502;DHT22;3792;47.740;7.606;2022-11-20T01:26:04;7.40;99.90
7502;DHT22;3792;47.740;7.606;2022-11-20T01:28:32;7.40;99.90
7502;DHT22;3792;47.740;7.606;2022-11-20T01:31:00;7.40;99.90
7502;DHT22;3792;47.740;7.606;2022-11-20T01:33:27;7.40;99.90
7502;DHT22;3792;47.740;7.606;2022-11-20T01:36:03;7.40;99.90
7502;DHT22;3792;47.740;7.606;2022-11-20T01:38:31;7.40;99.90
7502;DHT22;3792;47.740;7.606;2022-11-20T01:40:58;7.40;99.90
7502;DHT22;3792;47.740;7.606;2022-11-20T01:43:27;7.40;99.90
7502;DHT22;3792;47.740;7.606;2022-11-20T01:46:04;7.40;99.90
7502;DHT22;3792;47.740;7.606;2022-11-20T01:48:36;7.30;99.90
7502;DHT22;3792;47.740;7.606;2022-11-20T01:51:10;7.40;99.90
7502;DHT22;3792;47.740;7.606;2022-11-20T01:53:37;7.40;99.90
7502;DHT22;3792;47.740;7.606;2022-11-20T01:56:08;7.30;99.90
7502;DHT22;3792;47.740;7.606;2022-11-20T01:58:39;7.30;99.90
7502;DHT22;3792;47.740;7.606;2022-11-20T02:01:08;7.30;99.90
7502;DHT22;3792;47.740;7.606;2022-11-20T02:03:36;7.30;99.90
7502;DHT22;3792;47.740;7.606;2022-11-20T02:06:08;7.30;99.90
7502;DHT22;3792;47.740;7.606;2022-11-20T02:08:37;7.30;99.90
7502;DHT22;3792;47.740;7.606;2022-11-20T02:11:05;7.30;99.90
7502;DHT22;3792;47.740;7.606;2022-11-20T02:13:32;7.30;99.90
7502;DHT22;3792;47.740;7.606;2022-11-20T02:16:19;7.30;99.90
7502;DHT22;3792;47.740;7.606;2022-11-20T02:18:47;7.30;99.90
7502;DHT22;3792;47.740;7.606;2022-11-20T02:21:25;7.30;99.90
7502;DHT22;3792;47.740;7.606;2022-11-20T02:24:07;7.40;99.90
7502;DHT22;3792;47.740;7.606;2022-11-20T02:26:40;7.30;99.90
7502;DHT22;3792;47.740;7.606;2022-11-20T02:29:08;7.30;99.90
7502;DHT22;3792;47.740;7.606;2022-11-20T02:31:40;7.30;99.90
7502;DHT22;3792;47.740;7.606;2022-11-20T02:34:08;7.30;99.90
7502;DHT22;3792;47.740;7.606;2022-11-20T02:36:36;7.30;99.90
7502;DHT22;3792;47.740;7.606;2022-11-20T02:39:07;7.30;99.90
7502;DHT22;3792;47.740;7.606;2022-11-20T02:41:36;7.30;99.90
7502;DHT22;3792;47.740;7.606;2022-11-20T02:44:04;7.40;99.90
7502;DHT22;3792;47.740;7.606;2022-11-20T02:46:32;7.30;99.90
7502;DHT22;3792;47.740;7.606;2022-11-20T02:49:01;7.30;99.90
7502;DHT22;3792;47.740;7.606;2022-11-20T02:51:29;7.30;99.90
7502;DHT22;3792;47.740;7.606;2022-11-20T02:53:56;7.30;99.90
7502;DHT22;3792;47.740;7.606;2022-11-20T02:56:25;7.20;99.90
7502;DHT22;3792;47.740;7.606;2022-11-20T02:58:52;7.20;99.90
7502;DHT22;3792;47.740;7.606;2022-11-20T03:01:19;7.30;99.90
7502;DHT22;3792;47.740;7.606;2022-11-20T03:03:46;7.30;99.90
7502;DHT22;3792;47.740;7.606;2022-11-20T03:06:14;7.30;99.90
7502;DHT22;3792;47.740;7.606;2022-11-20T03:08:42;7.30;99.90
7502;DHT22;3792;47.740;7.606;2022-11-20T03:11:09;7.30;99.90
7502;DHT22;3792;47.740;7.606;2022-11-20T03:13:38;7.30;99.90
7502;DHT22;3792;47.740;7.606;2022-11-20T03:16:10;7.30;99.90
7502;DHT22;3792;47.740;7.606;2022-11-20T03:18:37;7.20;99.90
7502;DHT22;3792;47.740;7.606;2022-11-20T03:21:05;7.30;99.90
7502;DHT22;3792;47.740;7.606;2022-11-20T03:23:34;7.20;99.90
7502;DHT22;3792;47.740;7.606;2022-11-20T03:26:12;7.20;99.90
7502;DHT22;3792;47.740;7.606;2022-11-20T03:28:41;7.20;99.90
7502;DHT22;3792;47.740;7.606;2022-11-20T03:31:10;7.30;99.90
7502;DHT22;3792;47.740;7.606;2022-11-20T03:33:38;7.30;99.90
7502;DHT22;3792;47.740;7.606;2022-11-20T03:36:07;7.30;99.90
7502;DHT22;3792;47.740;7.606;2022-11-20T03:38:35;7.40;99.90
7502;DHT22;3792;47.740;7.606;2022-11-20T03:41:03;7.30;99.90
7502;DHT22;3792;47.740;7.606;2022-11-20T03:43:31;7.40;99.90
7502;DHT22;3792;47.740;7.606;2022-11-20T03:46:00;7.40;99.90
7502;DHT22;3792;47.740;7.606;2022-11-20T03:48:27;7.40;99.90
7502;DHT22;3792;47.740;7.606;2022-11-20T03:51:07;7.40;99.90
7502;DHT22;3792;47.740;7.606;2022-11-20T03:53:35;7.30;99.90
7502;DHT22;3792;47.740;7.606;2022-11-20T03:56:02;7.30;99.90
7502;DHT22;3792;47.740;7.606;2022-11-20T03:58:29;7.30;99.90
7502;DHT22;3792;47.740;7.606;2022-11-20T04:00:56;7.30;99.90
7502;DHT22;3792;47.740;7.606;2022-11-20T04:03:25;7.30;99.90
7502;DHT22;3792;47.740;7.606;2022-11-20T04:05:52;7.20;99.90
7502;DHT22;3792;47.740;7.606;2022-11-20T04:08:19;7.30;99.90
7502;DHT22;3792;47.740;7.606;2022-11-20T04:10:46;7.30;99.90
7502;DHT22;3792;47.740;7.606;2022-11-20T04:13:13;7.10;99.90
7502;DHT22;3792;47.740;7.606;2022-11-20T04:15:40;7.10;99.90
7502;DHT22;3792;47.740;7.606;2022-11-20T04:18:07;7.00;99.90
7502;DHT22;3792;47.740;7.606;2022-11-20T04:20:36;7.00;99.90
7502;DHT22;3792;47.740;7.606;2022-11-20T04:23:03;7.00;99.90
7502;DHT22;3792;47.740;7.606;2022-11-20T04:25:31;7.00;99.90
7502;DHT22;3792;47.740;7.606;2022-11-20T04:27:58;7.00;99.90
7502;DHT22;3792;47.740;7.606;2022-11-20T04:30:25;7.00;99.90
7502;DHT22;3792;47.740;7.606;2022-11-20T04:32:52;7.00;99.90
7502;DHT22;3792;47.740;7.606;2022-11-20T04:35:19;7.00;99.90
7502;DHT22;3792;47.740;7.606;2022-11-20T04:37:47;6.90;99.90
7502;DHT22;3792;47.740;7.606;2022-11-20T04:40:17;6.90;99.90
7502;DHT22;3792;47.740;7.606;2022-11-20T04:42:44;6.80;99.90
7502;DHT22;3792;47.740;7.606;2022-11-20T04:45:11;6.80;99.90
7502;DHT22;3792;47.740;7.606;2022-11-20T04:47:38;6.90;99.90
7502;DHT22;3792;47.740;7.606;2022-11-20T04:50:06;6.90;99.90
7502;DHT22;3792;47.740;7.606;2022-11-20T04:52:33;6.80;99.90
7502;DHT22;3792;47.740;7.606;2022-11-20T04:55:02;6.80;99.90
7502;DHT22;3792;47.740;7.606;2022-11-20T04:57:29;6.80;99.90
7502;DHT22;3792;47.740;7.606;2022-11-20T04:59:56;6.70;99.90
7502;DHT22;3792;47.740;7.606;2022-11-20T05:02:23;6.70;99.90
7502;DHT22;3792;47.740;7.606;2022-11-20T05:04:50;6.70;99.90
7502;DHT22;3792;47.740;7.606;2022-11-20T05:07:17;6.60;99.90
7502;DHT22;3792;47.740;7.606;2022-11-20T05:09:44;6.70;99.90
7502;DHT22;3792;47.740;7.606;2022-11-20T05:12:13;6.70;99.90
7502;DHT22;3792;47.740;7.606;2022-11-20T05:14:40;6.80;99.90
7502;DHT22;3792;47.740;7.606;2022-11-20T05:17:10;6.80;99.90
7502;DHT22;3792;47.740;7.606;2022-11-20T05:19:37;6.80;99.90
7502;DHT22;3792;47.740;7.606;2022-11-20T05:22:04;6.70;99.90
7502;DHT22;3792;47.740;7.606;2022-11-20T05:24:31;6.70;99.90
7502;DHT22;3792;47.740;7.606;2022-11-20T05:26:58;6.70;99.90
7502;DHT22;3792;47.740;7.606;2022-11-20T05:29:27;6.70;99.90
7502;DHT22;3792;47.740;7.606;2022-11-20T05:31:54;6.70;99.90
7502;DHT22;3792;47.740;7.606;2022-11-20T05:34:21;6.70;99.90
7502;DHT22;3792;47.740;7.606;2022-11-20T05:36:48;6.70;99.90
7502;DHT22;3792;47.740;7.606;2022-11-20T05:39:15;6.70;99.90
7502;DHT22;3792;47.740;7.606;2022-11-20T05:41:42;6.80;99.90
7502;DHT22;3792;47.740;7.606;2022-11-20T05:44:10;6.70;99.90
7502;DHT22;3792;47.740;7.606;2022-11-20T05:46:39;6.70;99.90
7502;DHT22;3792;47.740;7.606;2022-11-20T05:49:06;6.70;99.90
7502;DHT22;3792;47.740;7.606;2022-11-20T05:51:33;6.60;99.90
7502;DHT22;3792;47.740;7.606;2022-11-20T05:54:00;6.60;99.90
7502;DHT22;3792;47.740;7.606;2022-11-20T05:56:27;6.60;99.90
7502;DHT22;3792;47.740;7.606;2022-11-20T05:58:54;6.60;99.90
7502;DHT22;3792;47.740;7.606;2022-11-20T06:01:24;6.60;99.90
7502;DHT22;3792;47.740;7.606;2022-11-20T06:03:53;6.60;99.90
7502;DHT22;3792;47.740;7.606;2022-11-20T06:06:20;6.60;99.90
7502;DHT22;3792;47.740;7.606;2022-11-20T06:08:48;6.60;99.90
7502;DHT22;3792;47.740;7.606;2022-11-20T06:11:16;6.60;99.90
7502;DHT22;3792;47.740;7.606;2022-11-20T06:13:44;6.70;99.90
7502;DHT22;3792;47.740;7.606;2022-11-20T06:16:12;6.70;99.90
7502;DHT22;3792;47.740;7.606;2022-11-20T06:18:40;6.70;99.90
7502;DHT22;3792;47.740;7.606;2022-11-20T06:21:09;6.70;99.90
7502;DHT22;3792;47.740;7.606;2022-11-20T06:23:37;6.70;99.90
7502;DHT22;3792;47.740;7.606;2022-11-20T06:26:06;6.60;99.90
7502;DHT22;3792;47.740;7.606;2022-11-20T06:28:33;6.60;99.90
7502;DHT22;3792;47.740;7.606;2022-11-20T06:31:01;6.70;99.90
7502;DHT22;3792;47.740;7.606;2022-11-20T06:33:28;6.70;99.90
7502;DHT22;3792;47.740;7.606;2022-11-20T06:35:56;6.70;99.90
7502;DHT22;3792;47.740;7.606;2022-11-20T06:38:25;6.60;99.90
7502;DHT22;3792;47.740;7.606;2022-11-20T06:40:52;6.60;99.90
7502;DHT22;3792;47.740;7.606;2022-11-20T06:43:20;6.60;99.90
7502;DHT22;3792;47.740;7.606;2022-11-20T06:45:51;6.70;99.90
7502;DHT22;3792;47.740;7.606;2022-11-20T06:48:19;6.60;99.90
7502;DHT22;3792;47.740;7.606;2022-11-20T06:50:46;6.60;99.90
7502;DHT22;3792;47.740;7.606;2022-11-20T06:53:13;6.70;99.90
7502;DHT22;3792;47.740;7.606;2022-11-20T06:55:43;6.60;99.90
7502;DHT22;3792;47.740;7.606;2022-11-20T06:58:11;6.60;99.90
7502;DHT22;3792;47.740;7.606;2022-11-20T07:00:38;6.70;99.90
7502;DHT22;3792;47.740;7.606;2022-11-20T07:03:06;6.70;99.90
7502;DHT22;3792;47.740;7.606;2022-11-20T07:05:34;6.70;99.90
7502;DHT22;3792;47.740;7.606;2022-11-20T07:08:01;6.70;99.90
7502;DHT22;3792;47.740;7.606;2022-11-20T07:10:28;6.70;99.90
7502;DHT22;3792;47.740;7.606;2022-11-20T07:12:57;6.70;99.90
7502;DHT22;3792;47.740;7.606;2022-11-20T07:15:25;6.80;99.90
7502;DHT22;3792;47.740;7.606;2022-11-20T07:17:52;6.70;99.90
7502;DHT22;3792;47.740;7.606;2022-11-20T07:20:19;6.70;99.90
7502;DHT22;3792;47.740;7.606;2022-11-20T07:22:46;6.70;99.90
7502;DHT22;3792;47.740;7.606;2022-11-20T07:25:14;6.80;99.90
7502;DHT22;3792;47.740;7.606;2022-11-20T07:27:41;6.80;99.90
7502;DHT22;3792;47.740;7.606;2022-11-20T07:30:10;6.90;99.90
7502;DHT22;3792;47.740;7.606;2022-11-20T07:32:37;6.80;99.90
7502;DHT22;3792;47.740;7.606;2022-11-20T07:35:05;6.90;99.90
7502;DHT22;3792;47.740;7.606;2022-11-20T07:37:34;7.00;99.90
7502;DHT22;3792;47.740;7.606;2022-11-20T07:40:02;7.00;99.90
7502;DHT22;3792;47.740;7.606;2022-11-20T07:42:29;6.90;99.90
7502;DHT22;3792;47.740;7.606;2022-11-20T07:44:56;6.90;99.90
7502;DHT22;3792;47.740;7.606;2022-11-20T07:47:25;6.90;99.90
7502;DHT22;3792;47.740;7.606;2022-11-20T07:49:52;6.90;99.90
7502;DHT22;3792;47.740;7.606;2022-11-20T07:52:20;6.80;99.90
7502;DHT22;3792;47.740;7.606;2022-11-20T07:54:47;6.80;99.90
7502;DHT22;3792;47.740;7.606;2022-11-20T07:57:14;6.90;99.90
7502;DHT22;3792;47.740;7.606;2022-11-20T07:59:41;6.90;99.90
7502;DHT22;3792;47.740;7.606;2022-11-20T08:02:10;6.90;99.90
7502;DHT22;3792;47.740;7.606;2022-11-20T08:04:39;7.00;99.90
7502;DHT22;3792;47.740;7.606;2022-11-20T08:07:06;6.90;99.90
7502;DHT22;3792;47.740;7.606;2022-11-20T08:09:34;6.90;99.90
7502;DHT22;3792;47.740;7.606;2022-11-20T08:12:01;6.90;99.90
7502;DHT22;3792;47.740;7.606;2022-11-20T08:14:45;6.90;99.90
7502;DHT22;3792;47.740;7.606;2022-11-20T08:17:12;7.00;99.90
7502;DHT22;3792;47.740;7.606;2022-11-20T08:19:41;7.00;99.90
7502;DHT22;3792;47.740;7.606;2022-11-20T08:22:08;7.00;99.90
7502;DHT22;3792;47.740;7.606;2022-11-20T08:24:35;7.10;99.90
7502;DHT22;3792;47.740;7.606;2022-11-20T08:27:03;7.10;99.90
7502;DHT22;3792;47.740;7.606;2022-11-20T08:29:30;7.10;99.90
7502;DHT22;3792;47.740;7.606;2022-11-20T08:31:57;7.10;99.90
7502;DHT22;3792;47.740;7.606;2022-11-20T08:34:24;7.20;99.90
7502;DHT22;3792;47.740;7.606;2022-11-20T08:36:52;7.20;99.90
7502;DHT22;3792;47.740;7.606;2022-11-20T08:39:19;7.30;99.90
7502;DHT22;3792;47.740;7.606;2022-11-20T08:41:46;7.30;99.90
7502;DHT22;3792;47.740;7.606;2022-11-20T08:44:13;7.80;99.90
7502;DHT22;3792;47.740;7.606;2022-11-20T08:46:42;8.00;99.90
7502;DHT22;3792;47.740;7.606;2022-11-20T08:49:12;8.00;99.90
7502;DHT22;3792;47.740;7.606;2022-11-20T08:51:41;7.80;99.90
7502;DHT22;3792;47.740;7.606;2022-11-20T08:54:10;7.70;99.90
7502;DHT22;3792;47.740;7.606;2022-11-20T08:56:37;7.70;99.90
7502;DHT22;3792;47.740;7.606;2022-11-20T08:59:04;7.70;99.90
7502;DHT22;3792;47.740;7.606;2022-11-20T09:01:31;7.50;99.90
7502;DHT22;3792;47.740;7.606;2022-11-20T09:03:58;7.50;99.90
7502;DHT22;3792;47.740;7.606;2022-11-20T09:06:26;7.50;99.90
7502;DHT22;3792;47.740;7.606;2022-11-20T09:08:54;7.50;99.90
7502;DHT22;3792;47.740;7.606;2022-11-20T09:11:24;7.50;99.90
7502;DHT22;3792;47.740;7.606;2022-11-20T09:13:51;7.50;99.90
7502;DHT22;3792;47.740;7.606;2022-11-20T09:16:18;7.60;99.90
7502;DHT22;3792;47.740;7.606;2022-11-20T09:18:45;7.60;99.90
7502;DHT22;3792;47.740;7.606;2022-11-20T09:21:13;7.60;99.90
7502;DHT22;3792;47.740;7.606;2022-11-20T09:23:40;7.50;99.90
7502;DHT22;3792;47.740;7.606;2022-11-20T09:26:09;7.60;99.90
7502;DHT22;3792;47.740;7.606;2022-11-20T09:28:38;7.60;99.90
7502;DHT22;3792;47.740;7.606;2022-11-20T09:31:05;7.70;99.90
7502;DHT22;3792;47.740;7.606;2022-11-20T09:33:33;7.70;99.90
7502;DHT22;3792;47.740;7.606;2022-11-20T09:36:00;7.70;99.90
7502;DHT22;3792;47.740;7.606;2022-11-20T09:38:27;7.70;99.90
7502;DHT22;3792;47.740;7.606;2022-11-20T09:40:57;7.80;99.90
7502;DHT22;3792;47.740;7.606;2022-11-20T09:43:32;7.80;99.90
7502;DHT22;3792;47.740;7.606;2022-11-20T09:46:09;7.80;99.90
7502;DHT22;3792;47.740;7.606;2022-11-20T09:51:40;7.90;99.90
7502;DHT22;3792;47.740;7.606;2022-11-20T09:54:15;8.00;99.90
7502;DHT22;3792;47.740;7.606;2022-11-20T09:56:47;8.00;99.90
7502;DHT22;3792;47.740;7.606;2022-11-20T09:59:38;8.10;99.90
7502;DHT22;3792;47.740;7.606;2022-11-20T10:02:16;8.20;99.90
7502;DHT22;3792;47.740;7.606;2022-11-20T10:04:47;8.20;99.90
7502;DHT22;3792;47.740;7.606;2022-11-20T10:07:19;8.20;99.90
7502;DHT22;3792;47.740;7.606;2022-11-20T10:09:52;8.30;99.90
7502;DHT22;3792;47.740;7.606;2022-11-20T10:12:27;8.40;99.90
7502;DHT22;3792;47.740;7.606;2022-11-20T10:15:05;8.40;99.90
7502;DHT22;3792;47.740;7.606;2022-11-20T10:17:58;8.50;99.90
7502;DHT22;3792;47.740;7.606;2022-11-20T10:20:35;8.50;99.90
7502;DHT22;3792;47.740;7.606;2022-11-20T10:26:02;8.60;99.90
7502;DHT22;3792;47.740;7.606;2022-11-20T10:28:39;8.60;99.90
7502;DHT22;3792;47.740;7.606;2022-11-20T10:31:17;8.70;99.90
7502;DHT22;3792;47.740;7.606;2022-11-20T10:33:52;8.90;99.90
7502;DHT22;3792;47.740;7.606;2022-11-20T10:36:23;8.90;99.90
7502;DHT22;3792;47.740;7.606;2022-11-20T10:38:54;8.90;99.90
7502;DHT22;3792;47.740;7.606;2022-11-20T10:41:27;9.00;99.90
7502;DHT22;3792;47.740;7.606;2022-11-20T10:44:02;8.90;99.90
7502;DHT22;3792;47.740;7.606;2022-11-20T10:46:37;9.00;99.90
7502;DHT22;3792;47.740;7.606;2022-11-20T10:49:12;8.90;99.90
7502;DHT22;3792;47.740;7.606;2022-11-20T10:51:46;8.90;99.90
7502;DHT22;3792;47.740;7.606;2022-11-20T10:54:22;8.80;99.90
7502;DHT22;3792;47.740;7.606;2022-11-20T10:56:53;8.80;99.90
7502;DHT22;3792;47.740;7.606;2022-11-20T11:02:16;8.80;99.90
7502;DHT22;3792;47.740;7.606;2022-11-20T11:04:46;8.70;99.90
7502;DHT22;3792;47.740;7.606;2022-11-20T11:07:17;8.70;99.90
7502;DHT22;3792;47.740;7.606;2022-11-20T11:09:48;8.60;99.90
7502;DHT22;3792;47.740;7.606;2022-11-20T11:12:16;8.70;99.90
7502;DHT22;3792;47.740;7.606;2022-11-20T11:14:45;8.60;99.90
7502;DHT22;3792;47.740;7.606;2022-11-20T11:17:25;8.70;99.90
7502;DHT22;3792;47.740;7.606;2022-11-20T11:20:03;8.80;99.90
7502;DHT22;3792;47.740;7.606;2022-11-20T11:22:32;9.00;99.90
7502;DHT22;3792;47.740;7.606;2022-11-20T11:25:00;9.30;99.90
7502;DHT22;3792;47.740;7.606;2022-11-20T11:27:28;9.50;99.90
7502;DHT22;3792;47.740;7.606;2022-11-20T11:30:11;9.80;99.90
7502;DHT22;3792;47.740;7.606;2022-11-20T11:32:38;10.50;99.90
7502;DHT22;3792;47.740;7.606;2022-11-20T11:35:23;10.80;99.90
7502;DHT22;3792;47.740;7.606;2022-11-20T11:37:52;11.10;99.90
7502;DHT22;3792;47.740;7.606;2022-11-20T11:40:21;11.30;99.90
7502;DHT22;3792;47.740;7.606;2022-11-20T11:42:57;11.40;99.90
7502;DHT22;3792;47.740;7.606;2022-11-20T11:45:25;11.60;99.90
7502;DHT22;3792;47.740;7.606;2022-11-20T11:47:53;12.10;99.90
7502;DHT22;3792;47.740;7.606;2022-11-20T11:50:23;12.50;99.90
7502;DHT22;3792;47.740;7.606;2022-11-20T11:52:59;12.50;99.90
7502;DHT22;3792;47.740;7.606;2022-11-20T11:55:33;12.10;99.90
7502;DHT22;3792;47.740;7.606;2022-11-20T11:58:14;11.60;99.90
7502;DHT22;3792;47.740;7.606;2022-11-20T12:00:51;11.20;99.90
7502;DHT22;3792;47.740;7.606;2022-11-20T12:03:25;10.80;99.90
7502;DHT22;3792;47.740;7.606;2022-11-20T12:05:58;10.60;99.90
7502;DHT22;3792;47.740;7.606;2022-11-20T12:08:31;10.40;99.90
7502;DHT22;3792;47.740;7.606;2022-11-20T12:11:06;11.10;99.90
7502;DHT22;3792;47.740;7.606;2022-11-20T12:13:45;11.80;99.90
7502;DHT22;3792;47.740;7.606;2022-11-20T12:16:14;12.00;99.90
7502;DHT22;3792;47.740;7.606;2022-11-20T12:18:43;11.80;99.90
7502;DHT22;3792;47.740;7.606;2022-11-20T12:21:27;11.90;99.90
7502;DHT22;3792;47.740;7.606;2022-11-20T12:24:09;12.30;99.90
7502;DHT22;3792;47.740;7.606;2022-11-20T12:26:57;12.80;99.90
7502;DHT22;3792;47.740;7.606;2022-11-20T12:29:34;13.30;99.90
7502;DHT22;3792;47.740;7.606;2022-11-20T12:32:29;12.80;99.90
7502;DHT22;3792;47.740;7.606;2022-11-20T12:35:05;12.30;99.90
7502;DHT22;3792;47.740;7.606;2022-11-20T12:37:49;12.40;99.90
7502;DHT22;3792;47.740;7.606;2022-11-20T12:40:28;12.50;99.90
7502;DHT22;3792;47.740;7.606;2022-11-20T12:43:06;12.10;99.90
7502;DHT22;3792;47.740;7.606;2022-11-20T12:46:18;11.60;99.90
7502;DHT22;3792;47.740;7.606;2022-11-20T12:49:13;11.30;99.90
7502;DHT22;3792;47.740;7.606;2022-11-20T12:52:04;11.00;99.90
7502;DHT22;3792;47.740;7.606;2022-11-20T12:54:50;11.00;99.90
7502;DHT22;3792;47.740;7.606;2022-11-20T12:57:24;11.40;99.90
7502;DHT22;3792;47.740;7.606;2022-11-20T13:00:07;11.20;99.90
7502;DHT22;3792;47.740;7.606;2022-11-20T13:02:46;11.30;99.90
7502;DHT22;3792;47.740;7.606;2022-11-20T13:05:26;11.50;99.90
7502;DHT22;3792;47.740;7.606;2022-11-20T13:07:55;11.80;99.90
7502;DHT22;3792;47.740;7.606;2022-11-20T13:10:32;11.90;99.90
7502;DHT22;3792;47.740;7.606;2022-11-20T13:13:10;11.70;99.90
7502;DHT22;3792;47.740;7.606;2022-11-20T13:15:46;11.40;99.90
7502;DHT22;3792;47.740;7.606;2022-11-20T13:18:15;11.10;99.90
7502;DHT22;3792;47.740;7.606;2022-11-20T13:20:43;10.80;99.90
7502;DHT22;3792;47.740;7.606;2022-11-20T13:23:23;10.70;99.90
7502;DHT22;3792;47.740;7.606;2022-11-20T13:26:03;10.60;99.90
7502;DHT22;3792;47.740;7.606;2022-11-20T13:28:31;10.50;99.90
7502;DHT22;3792;47.740;7.606;2022-11-20T13:30:59;10.50;99.90
7502;DHT22;3792;47.740;7.606;2022-11-20T13:33:31;10.30;99.90
7502;DHT22;3792;47.740;7.606;2022-11-20T13:36:01;10.30;99.90
7502;DHT22;3792;47.740;7.606;2022-11-20T13:38:41;10.30;99.90
7502;DHT22;3792;47.740;7.606;2022-11-20T13:41:11;10.10;99.90
7502;DHT22;3792;47.740;7.606;2022-11-20T13:44:06;9.90;99.90
7502;DHT22;3792;47.740;7.606;2022-11-20T13:46:38;9.90;99.90
7502;DHT22;3792;47.740;7.606;2022-11-20T13:49:18;9.70;99.90
7502;DHT22;3792;47.740;7.606;2022-11-20T13:51:49;9.80;99.90
7502;DHT22;3792;47.740;7.606;2022-11-20T13:54:42;10.20;99.90
7502;DHT22;3792;47.740;7.606;2022-11-20T14:00:12;10.90;99.90
7502;DHT22;3792;47.740;7.606;2022-11-20T14:02:40;10.90;99.90
7502;DHT22;3792;47.740;7.606;2022-11-20T14:05:17;10.80;99.90
7502;DHT22;3792;47.740;7.606;2022-11-20T14:07:47;10.60;99.90
7502;DHT22;3792;47.740;7.606;2022-11-20T14:10:24;10.40;99.90
7502;DHT22;3792;47.740;7.606;2022-11-20T14:12:53;10.20;99.90
7502;DHT22;3792;47.740;7.606;2022-11-20T14:15:25;10.10;99.90
7502;DHT22;3792;47.740;7.606;2022-11-20T14:17:52;10.00;99.90
7502;DHT22;3792;47.740;7.606;2022-11-20T14:20:23;9.90;99.90
7502;DHT22;3792;47.740;7.606;2022-11-20T14:22:52;9.70;99.90
7502;DHT22;3792;47.740;7.606;2022-11-20T14:25:21;9.70;99.90
7502;DHT22;3792;47.740;7.606;2022-11-20T14:27:55;9.60;99.90
7502;DHT22;3792;47.740;7.606;2022-11-20T14:30:25;9.60;99.90
7502;DHT22;3792;47.740;7.606;2022-11-20T14:32:55;9.50;99.90
7502;DHT22;3792;47.740;7.606;2022-11-20T14:35:25;9.50;99.90
7502;DHT22;3792;47.740;7.606;2022-11-20T14:37:54;9.50;99.90
7502;DHT22;3792;47.740;7.606;2022-11-20T14:40:30;9.80;99.90
7502;DHT22;3792;47.740;7.606;2022-11-20T14:42:59;10.10;99.90
7502;DHT22;3792;47.740;7.606;2022-11-20T14:45:26;10.50;99.90
7502;DHT22;3792;47.740;7.606;2022-11-20T14:47:56;10.70;99.90
7502;DHT22;3792;47.740;7.606;2022-11-20T14:50:28;10.90;99.90
7502;DHT22;3792;47.740;7.606;2022-11-20T14:52:57;11.30;99.90
7502;DHT22;3792;47.740;7.606;2022-11-20T14:55:32;11.60;99.90
7502;DHT22;3792;47.740;7.606;2022-11-20T14:58:02;11.50;99.90
7502;DHT22;3792;47.740;7.606;2022-11-20T15:00:30;11.50;99.90
7502;DHT22;3792;47.740;7.606;2022-11-20T15:02:58;11.50;99.90
7502;DHT22;3792;47.740;7.606;2022-11-20T15:05:37;11.40;99.90
7502;DHT22;3792;47.740;7.606;2022-11-20T15:08:11;11.00;99.90
7502;DHT22;3792;47.740;7.606;2022-11-20T15:10:43;10.80;99.90
7502;DHT22;3792;47.740;7.606;2022-11-20T15:13:15;10.80;99.90
7502;DHT22;3792;47.740;7.606;2022-11-20T15:15:45;10.80;99.90
7502;DHT22;3792;47.740;7.606;2022-11-20T15:18:15;10.60;99.90
7502;DHT22;3792;47.740;7.606;2022-11-20T15:20:43;10.40;99.90
7502;DHT22;3792;47.740;7.606;2022-11-20T15:23:11;10.30;99.90
7502;DHT22;3792;47.740;7.606;2022-11-20T15:25:39;10.10;99.90
7502;DHT22;3792;47.740;7.606;2022-11-20T15:28:15;10.00;99.90
7502;DHT22;3792;47.740;7.606;2022-11-20T15:30:43;9.90;99.90
7502;DHT22;3792;47.740;7.606;2022-11-20T15:33:10;9.70;99.90
7502;DHT22;3792;47.740;7.606;2022-11-20T15:35:37;9.60;99.90
7502;DHT22;3792;47.740;7.606;2022-11-20T15:38:04;9.50;99.90
7502;DHT22;3792;47.740;7.606;2022-11-20T15:40:32;9.30;99.90
7502;DHT22;3792;47.740;7.606;2022-11-20T15:42:59;9.20;99.90
7502;DHT22;3792;47.740;7.606;2022-11-20T15:45:37;9.20;99.90
7502;DHT22;3792;47.740;7.606;2022-11-20T15:48:09;9.10;99.90
7502;DHT22;3792;47.740;7.606;2022-11-20T15:50:40;9.00;99.90
7502;DHT22;3792;47.740;7.606;2022-11-20T15:53:10;9.20;99.90
7502;DHT22;3792;47.740;7.606;2022-11-20T15:55:37;9.50;99.90
7502;DHT22;3792;47.740;7.606;2022-11-20T15:58:04;9.80;99.90
7502;DHT22;3792;47.740;7.606;2022-11-20T16:00:33;10.10;99.90
7502;DHT22;3792;47.740;7.606;2022-11-20T16:03:00;10.40;99.90
7502;DHT22;3792;47.740;7.606;2022-11-20T16:05:28;10.70;99.90
7502;DHT22;3792;47.740;7.606;2022-11-20T16:07:56;10.90;99.90
7502;DHT22;3792;47.740;7.606;2022-11-20T16:10:23;11.10;99.90
7502;DHT22;3792;47.740;7.606;2022-11-20T16:12:50;11.30;99.90
7502;DHT22;3792;47.740;7.606;2022-11-20T16:15:36;11.40;99.90
7502;DHT22;3792;47.740;7.606;2022-11-20T16:18:21;11.40;99.90
7502;DHT22;3792;47.740;7.606;2022-11-20T16:20:52;11.50;99.90
7502;DHT22;3792;47.740;7.606;2022-11-20T16:23:21;11.30;99.90
7502;DHT22;3792;47.740;7.606;2022-11-20T16:25:48;10.80;99.90
7502;DHT22;3792;47.740;7.606;2022-11-20T16:28:16;10.40;99.90
7502;DHT22;3792;47.740;7.606;2022-11-20T16:30:45;10.00;99.90
7502;DHT22;3792;47.740;7.606;2022-11-20T16:33:13;9.70;99.90
7502;DHT22;3792;47.740;7.606;2022-11-20T16:35:41;9.50;99.90
7502;DHT22;3792;47.740;7.606;2022-11-20T16:38:08;9.30;99.90
7502;DHT22;3792;47.740;7.606;2022-11-20T16:40:36;9.10;99.90
7502;DHT22;3792;47.740;7.606;2022-11-20T16:43:08;9.00;99.90
7502;DHT22;3792;47.740;7.606;2022-11-20T16:45:40;8.90;99.90
7502;DHT22;3792;47.740;7.606;2022-11-20T16:48:13;8.70;99.90